RJNF(METAR)
10/16 16:00
RJNF 160700Z 01009KT 9999 SCT030 17/12 Q1023 RMK A3023=
戻る
トップページへ戻る
IMOC Co,.Ltd.